sensor_id;sensor_type;location;lat;lon;timestamp;pressure;altitude;pressure_sealevel;temperature;humidity
23473;BME280;11909;52.516;13.564;2023-09-08T00:01:24;101621.81;;;18.62;78.11
23473;BME280;11909;52.516;13.564;2023-09-08T00:03:52;101620.78;;;18.58;78.42
23473;BME280;11909;52.516;13.564;2023-09-08T00:06:21;101617.81;;;18.55;78.40
23473;BME280;11909;52.516;13.564;2023-09-08T00:08:49;101622.22;;;18.56;78.33
23473;BME280;11909;52.516;13.564;2023-09-08T00:11:17;101615.97;;;18.50;78.47
23473;BME280;11909;52.516;13.564;2023-09-08T00:13:45;101621.84;;;18.48;78.85
23473;BME280;11909;52.516;13.564;2023-09-08T00:16:13;101606.91;;;18.44;79.25
23473;BME280;11909;52.516;13.564;2023-09-08T00:18:41;101608.06;;;18.43;79.38
23473;BME280;11909;52.516;13.564;2023-09-08T00:21:09;101611.97;;;18.42;79.27
23473;BME280;11909;52.516;13.564;2023-09-08T00:23:38;101608.19;;;18.38;79.51
23473;BME280;11909;52.516;13.564;2023-09-08T00:26:06;101605.41;;;18.38;79.71
23473;BME280;11909;52.516;13.564;2023-09-08T00:28:34;101602.63;;;18.38;79.79
23473;BME280;11909;52.516;13.564;2023-09-08T00:31:02;101601.31;;;18.36;79.89
23473;BME280;11909;52.516;13.564;2023-09-08T00:33:31;101594.09;;;18.34;79.71
23473;BME280;11909;52.516;13.564;2023-09-08T00:35:59;101598.63;;;18.30;79.34
23473;BME280;11909;52.516;13.564;2023-09-08T00:38:27;101595.66;;;18.27;79.48
23473;BME280;11909;52.516;13.564;2023-09-08T00:40:56;101594.09;;;18.20;79.64
23473;BME280;11909;52.516;13.564;2023-09-08T00:43:25;101603.56;;;18.19;79.69
23473;BME280;11909;52.516;13.564;2023-09-08T00:45:54;101603.06;;;18.17;79.58
23473;BME280;11909;52.516;13.564;2023-09-08T00:48:25;101605.66;;;18.14;79.79
23473;BME280;11909;52.516;13.564;2023-09-08T00:50:53;101601.53;;;18.11;80.23
23473;BME280;11909;52.516;13.564;2023-09-08T00:53:22;101604.31;;;18.11;80.42
23473;BME280;11909;52.516;13.564;2023-09-08T00:55:50;101600.19;;;18.09;80.35
23473;BME280;11909;52.516;13.564;2023-09-08T00:58:20;101606.88;;;18.08;80.64
23473;BME280;11909;52.516;13.564;2023-09-08T01:00:48;101599.41;;;18.08;80.31
23473;BME280;11909;52.516;13.564;2023-09-08T01:03:15;101607.22;;;18.06;80.18
23473;BME280;11909;52.516;13.564;2023-09-08T01:05:44;101604.13;;;18.08;80.33
23473;BME280;11909;52.516;13.564;2023-09-08T01:08:13;101604.44;;;18.06;80.19
23473;BME280;11909;52.516;13.564;2023-09-08T01:10:41;101597.25;;;18.05;79.99
23473;BME280;11909;52.516;13.564;2023-09-08T01:13:09;101603.44;;;18.02;80.08
23473;BME280;11909;52.516;13.564;2023-09-08T01:15:39;101600.41;;;17.98;80.36
23473;BME280;11909;52.516;13.564;2023-09-08T01:18:07;101597.13;;;17.96;80.41
23473;BME280;11909;52.516;13.564;2023-09-08T01:20:54;101599.06;;;17.96;80.61
23473;BME280;11909;52.516;13.564;2023-09-08T01:23:38;101601.31;;;17.94;80.64
23473;BME280;11909;52.516;13.564;2023-09-08T01:26:16;101592.81;;;17.90;80.90
23473;BME280;11909;52.516;13.564;2023-09-08T01:28:45;101594.25;;;17.87;81.41
23473;BME280;11909;52.516;13.564;2023-09-08T01:31:16;101586.53;;;17.84;81.62
23473;BME280;11909;52.516;13.564;2023-09-08T01:33:45;101586.03;;;17.82;81.68
23473;BME280;11909;52.516;13.564;2023-09-08T01:36:13;101582.00;;;17.74;81.90
23473;BME280;11909;52.516;13.564;2023-09-08T01:38:41;101574.81;;;17.73;82.12
23473;BME280;11909;52.516;13.564;2023-09-08T01:41:09;101578.50;;;17.69;82.28
23473;BME280;11909;52.516;13.564;2023-09-08T01:43:38;101576.97;;;17.62;82.64
23473;BME280;11909;52.516;13.564;2023-09-08T01:46:06;101577.78;;;17.63;82.68
23473;BME280;11909;52.516;13.564;2023-09-08T01:48:33;101569.06;;;17.56;83.08
23473;BME280;11909;52.516;13.564;2023-09-08T01:51:02;101575.22;;;17.53;83.28
23473;BME280;11909;52.516;13.564;2023-09-08T01:53:30;101579.88;;;17.57;83.44
23473;BME280;11909;52.516;13.564;2023-09-08T01:55:58;101577.16;;;17.52;83.71
23473;BME280;11909;52.516;13.564;2023-09-08T01:58:26;101577.50;;;17.51;83.92
23473;BME280;11909;52.516;13.564;2023-09-08T02:00:55;101573.06;;;17.49;83.69
23473;BME280;11909;52.516;13.564;2023-09-08T02:03:26;101565.16;;;17.43;83.98
23473;BME280;11909;52.516;13.564;2023-09-08T02:05:54;101573.25;;;17.39;84.06
23473;BME280;11909;52.516;13.564;2023-09-08T02:08:22;101570.47;;;17.39;84.25
23473;BME280;11909;52.516;13.564;2023-09-08T02:10:50;101574.09;;;17.40;84.34
23473;BME280;11909;52.516;13.564;2023-09-08T02:13:18;101566.78;;;17.44;84.14
23473;BME280;11909;52.516;13.564;2023-09-08T02:15:46;101569.28;;;17.45;83.67
23473;BME280;11909;52.516;13.564;2023-09-08T02:18:15;101567.63;;;17.44;83.73
23473;BME280;11909;52.516;13.564;2023-09-08T02:20:43;101556.53;;;17.44;84.25
23473;BME280;11909;52.516;13.564;2023-09-08T02:23:11;101563.63;;;17.51;83.92
23473;BME280;11909;52.516;13.564;2023-09-08T02:25:39;101558.88;;;17.51;83.67
23473;BME280;11909;52.516;13.564;2023-09-08T02:28:07;101559.19;;;17.49;84.02
23473;BME280;11909;52.516;13.564;2023-09-08T02:30:34;101555.59;;;17.49;84.27
23473;BME280;11909;52.516;13.564;2023-09-08T02:33:03;101559.94;;;17.55;84.02
23473;BME280;11909;52.516;13.564;2023-09-08T02:35:36;101563.50;;;17.56;83.75
23473;BME280;11909;52.516;13.564;2023-09-08T02:38:04;101555.41;;;17.59;83.69
23473;BME280;11909;52.516;13.564;2023-09-08T02:40:32;101558.97;;;17.60;83.54
23473;BME280;11909;52.516;13.564;2023-09-08T02:43:02;101555.59;;;17.63;83.30
23473;BME280;11909;52.516;13.564;2023-09-08T02:45:30;101552.81;;;17.63;82.82
23473;BME280;11909;52.516;13.564;2023-09-08T02:48:02;101551.50;;;17.60;82.61
23473;BME280;11909;52.516;13.564;2023-09-08T02:50:30;101552.72;;;17.54;82.87
23473;BME280;11909;52.516;13.564;2023-09-08T02:52:59;101549.84;;;17.45;83.37
23473;BME280;11909;52.516;13.564;2023-09-08T02:55:27;101547.78;;;17.37;83.72
23473;BME280;11909;52.516;13.564;2023-09-08T02:57:55;101542.66;;;17.30;84.03
23473;BME280;11909;52.516;13.564;2023-09-08T03:00:24;101544.69;;;17.25;84.44
23473;BME280;11909;52.516;13.564;2023-09-08T03:02:52;101537.00;;;17.22;84.66
23473;BME280;11909;52.516;13.564;2023-09-08T03:05:20;101538.69;;;17.17;85.18
23473;BME280;11909;52.516;13.564;2023-09-08T03:07:48;101534.63;;;17.15;85.46
23473;BME280;11909;52.516;13.564;2023-09-08T03:10:17;101533.59;;;17.11;85.48
23473;BME280;11909;52.516;13.564;2023-09-08T03:12:45;101526.69;;;17.08;85.85
23473;BME280;11909;52.516;13.564;2023-09-08T03:15:13;101540.44;;;16.99;86.34
23473;BME280;11909;52.516;13.564;2023-09-08T03:17:41;101529.06;;;17.01;86.49
23473;BME280;11909;52.516;13.564;2023-09-08T03:20:10;101530.69;;;17.02;86.19
23473;BME280;11909;52.516;13.564;2023-09-08T03:22:40;101524.31;;;17.01;86.31
23473;BME280;11909;52.516;13.564;2023-09-08T03:25:08;101527.41;;;17.00;86.42
23473;BME280;11909;52.516;13.564;2023-09-08T03:27:37;101529.63;;;16.98;86.27
23473;BME280;11909;52.516;13.564;2023-09-08T03:30:06;101535.25;;;16.92;86.38
23473;BME280;11909;52.516;13.564;2023-09-08T03:32:34;101535.06;;;16.89;86.79
23473;BME280;11909;52.516;13.564;2023-09-08T03:35:02;101534.22;;;16.88;86.77
23473;BME280;11909;52.516;13.564;2023-09-08T03:37:31;101531.25;;;16.85;86.95
23473;BME280;11909;52.516;13.564;2023-09-08T03:39:59;101537.47;;;16.76;87.52
23473;BME280;11909;52.516;13.564;2023-09-08T03:42:27;101530.00;;;16.77;87.25
23473;BME280;11909;52.516;13.564;2023-09-08T03:44:56;101537.78;;;16.75;87.54
23473;BME280;11909;52.516;13.564;2023-09-08T03:47:24;101529.53;;;16.70;88.20
23473;BME280;11909;52.516;13.564;2023-09-08T03:49:52;101540.09;;;16.68;88.18
23473;BME280;11909;52.516;13.564;2023-09-08T03:52:20;101539.06;;;16.63;88.48
23473;BME280;11909;52.516;13.564;2023-09-08T03:54:48;101537.41;;;16.62;88.46
23473;BME280;11909;52.516;13.564;2023-09-08T03:57:16;101536.63;;;16.62;88.80
23473;BME280;11909;52.516;13.564;2023-09-08T03:59:43;101537.75;;;16.61;88.86
23473;BME280;11909;52.516;13.564;2023-09-08T04:02:13;101533.28;;;16.60;88.50
23473;BME280;11909;52.516;13.564;2023-09-08T04:04:41;101537.50;;;16.57;88.54
23473;BME280;11909;52.516;13.564;2023-09-08T04:07:08;101540.28;;;16.57;88.84
23473;BME280;11909;52.516;13.564;2023-09-08T04:09:36;101535.03;;;16.56;88.77
23473;BME280;11909;52.516;13.564;2023-09-08T04:12:04;101535.88;;;16.56;89.09
23473;BME280;11909;52.516;13.564;2023-09-08T04:14:35;101541.69;;;16.55;88.96
23473;BME280;11909;52.516;13.564;2023-09-08T04:17:03;101535.13;;;16.51;89.04
23473;BME280;11909;52.516;13.564;2023-09-08T04:19:33;101534.84;;;16.52;89.54
23473;BME280;11909;52.516;13.564;2023-09-08T04:22:01;101540.66;;;16.51;89.14
23473;BME280;11909;52.516;13.564;2023-09-08T04:24:35;101538.50;;;16.47;89.35
23473;BME280;11909;52.516;13.564;2023-09-08T04:27:03;101540.53;;;16.42;89.75
23473;BME280;11909;52.516;13.564;2023-09-08T04:29:32;101540.59;;;16.37;89.99
23473;BME280;11909;52.516;13.564;2023-09-08T04:32:00;101544.19;;;16.37;90.13
23473;BME280;11909;52.516;13.564;2023-09-08T04:34:37;101551.69;;;16.37;90.02
23473;BME280;11909;52.516;13.564;2023-09-08T04:37:06;101550.84;;;16.36;90.34
23473;BME280;11909;52.516;13.564;2023-09-08T04:39:34;101551.69;;;16.37;90.34
23473;BME280;11909;52.516;13.564;2023-09-08T04:42:04;101550.31;;;16.34;90.39
23473;BME280;11909;52.516;13.564;2023-09-08T04:44:32;101549.00;;;16.31;90.57
23473;BME280;11909;52.516;13.564;2023-09-08T04:46:59;101545.72;;;16.29;90.88
23473;BME280;11909;52.516;13.564;2023-09-08T04:49:28;101546.00;;;16.28;90.99
23473;BME280;11909;52.516;13.564;2023-09-08T04:51:57;101545.47;;;16.26;91.25
23473;BME280;11909;52.516;13.564;2023-09-08T04:54:25;101549.97;;;16.22;91.14
23473;BME280;11909;52.516;13.564;2023-09-08T04:56:53;101543.31;;;16.23;91.58
23473;BME280;11909;52.516;13.564;2023-09-08T04:59:38;101552.44;;;16.23;91.77
23473;BME280;11909;52.516;13.564;2023-09-08T05:02:06;101550.19;;;16.25;91.62
23473;BME280;11909;52.516;13.564;2023-09-08T05:04:34;101551.84;;;16.26;91.67
23473;BME280;11909;52.516;13.564;2023-09-08T05:07:03;101549.38;;;16.25;91.47
23473;BME280;11909;52.516;13.564;2023-09-08T05:09:32;101552.75;;;16.22;91.67
23473;BME280;11909;52.516;13.564;2023-09-08T05:12:00;101553.88;;;16.20;91.99
23473;BME280;11909;52.516;13.564;2023-09-08T05:14:28;101554.38;;;16.23;92.01
23473;BME280;11909;52.516;13.564;2023-09-08T05:16:56;101552.38;;;16.28;92.16
23473;BME280;11909;52.516;13.564;2023-09-08T05:19:24;101554.63;;;16.26;92.28
23473;BME280;11909;52.516;13.564;2023-09-08T05:21:53;101557.69;;;16.25;92.38
23473;BME280;11909;52.516;13.564;2023-09-08T05:24:23;101558.47;;;16.25;92.33
23473;BME280;11909;52.516;13.564;2023-09-08T05:26:53;101558.19;;;16.27;92.88
23473;BME280;11909;52.516;13.564;2023-09-08T05:29:21;101555.13;;;16.28;92.71
23473;BME280;11909;52.516;13.564;2023-09-08T05:31:49;101551.53;;;16.28;92.82
23473;BME280;11909;52.516;13.564;2023-09-08T05:34:18;101549.28;;;16.30;92.79
23473;BME280;11909;52.516;13.564;2023-09-08T05:36:46;101552.56;;;16.32;93.06
23473;BME280;11909;52.516;13.564;2023-09-08T05:39:14;101544.78;;;16.34;92.97
23473;BME280;11909;52.516;13.564;2023-09-08T05:41:45;101551.97;;;16.35;93.04
23473;BME280;11909;52.516;13.564;2023-09-08T05:44:13;101553.63;;;16.36;93.29
23473;BME280;11909;52.516;13.564;2023-09-08T05:46:41;101544.94;;;16.43;93.07
23473;BME280;11909;52.516;13.564;2023-09-08T05:49:08;101549.06;;;16.45;93.02
23473;BME280;11909;52.516;13.564;2023-09-08T05:51:37;101554.50;;;16.51;92.81
23473;BME280;11909;52.516;13.564;2023-09-08T05:54:05;101553.09;;;16.53;93.07
23473;BME280;11909;52.516;13.564;2023-09-08T05:56:33;101555.19;;;16.61;93.07
23473;BME280;11909;52.516;13.564;2023-09-08T05:59:02;101549.53;;;16.67;92.69
23473;BME280;11909;52.516;13.564;2023-09-08T06:01:31;101549.78;;;16.70;92.44
23473;BME280;11909;52.516;13.564;2023-09-08T06:03:59;101551.94;;;16.73;92.69
23473;BME280;11909;52.516;13.564;2023-09-08T06:06:27;101552.16;;;16.77;92.87
23473;BME280;11909;52.516;13.564;2023-09-08T06:08:55;101550.72;;;16.80;92.73
23473;BME280;11909;52.516;13.564;2023-09-08T06:11:23;101557.63;;;16.82;92.60
23473;BME280;11909;52.516;13.564;2023-09-08T06:13:51;101550.34;;;16.86;92.60
23473;BME280;11909;52.516;13.564;2023-09-08T06:16:23;101548.91;;;16.89;92.65
23473;BME280;11909;52.516;13.564;2023-09-08T06:18:51;101553.53;;;16.94;92.59
23473;BME280;11909;52.516;13.564;2023-09-08T06:21:19;101545.44;;;16.97;92.85
23473;BME280;11909;52.516;13.564;2023-09-08T06:23:47;101544.56;;;17.02;92.86
23473;BME280;11909;52.516;13.564;2023-09-08T06:26:15;101546.72;;;17.05;92.95
23473;BME280;11909;52.516;13.564;2023-09-08T06:28:43;101542.41;;;17.13;92.78
23473;BME280;11909;52.516;13.564;2023-09-08T06:31:11;101544.69;;;17.11;92.83
23473;BME280;11909;52.516;13.564;2023-09-08T06:33:42;101538.69;;;17.17;92.82
23473;BME280;11909;52.516;13.564;2023-09-08T06:36:10;101542.44;;;17.27;92.64
23473;BME280;11909;52.516;13.564;2023-09-08T06:38:38;101545.94;;;17.32;92.39
23473;BME280;11909;52.516;13.564;2023-09-08T06:41:09;101551.06;;;17.39;91.45
23473;BME280;11909;52.516;13.564;2023-09-08T06:43:38;101546.84;;;17.42;91.44
23473;BME280;11909;52.516;13.564;2023-09-08T06:46:06;101539.88;;;17.44;91.23
23473;BME280;11909;52.516;13.564;2023-09-08T06:48:35;101541.41;;;17.51;90.91
23473;BME280;11909;52.516;13.564;2023-09-08T06:51:05;101546.06;;;17.55;90.44
23473;BME280;11909;52.516;13.564;2023-09-08T06:53:33;101546.75;;;17.61;89.19
23473;BME280;11909;52.516;13.564;2023-09-08T06:56:01;101544.91;;;17.70;88.84
23473;BME280;11909;52.516;13.564;2023-09-08T06:58:28;101544.50;;;17.77;88.84
23473;BME280;11909;52.516;13.564;2023-09-08T07:00:56;101546.81;;;17.84;88.26
23473;BME280;11909;52.516;13.564;2023-09-08T07:03:24;101543.00;;;17.94;87.74
23473;BME280;11909;52.516;13.564;2023-09-08T07:05:53;101539.59;;;17.97;87.36
23473;BME280;11909;52.516;13.564;2023-09-08T07:08:22;101543.13;;;18.02;88.00
23473;BME280;11909;52.516;13.564;2023-09-08T07:10:52;101542.72;;;18.09;87.28
23473;BME280;11909;52.516;13.564;2023-09-08T07:13:20;101544.44;;;18.19;87.32
23473;BME280;11909;52.516;13.564;2023-09-08T07:15:48;101542.66;;;18.23;86.52
23473;BME280;11909;52.516;13.564;2023-09-08T07:18:16;101546.03;;;18.34;85.39
23473;BME280;11909;52.516;13.564;2023-09-08T07:20:46;101540.84;;;18.41;85.16
23473;BME280;11909;52.516;13.564;2023-09-08T07:23:14;101555.44;;;18.47;85.38
23473;BME280;11909;52.516;13.564;2023-09-08T07:25:46;101547.81;;;18.53;84.99
23473;BME280;11909;52.516;13.564;2023-09-08T07:28:14;101549.03;;;18.60;84.91
23473;BME280;11909;52.516;13.564;2023-09-08T07:30:42;101551.41;;;18.76;82.81
23473;BME280;11909;52.516;13.564;2023-09-08T07:33:11;101540.53;;;18.88;83.59
23473;BME280;11909;52.516;13.564;2023-09-08T07:35:40;101557.28;;;18.97;81.20
23473;BME280;11909;52.516;13.564;2023-09-08T07:38:07;101557.16;;;19.02;81.84
23473;BME280;11909;52.516;13.564;2023-09-08T07:40:35;101559.84;;;19.16;78.95
23473;BME280;11909;52.516;13.564;2023-09-08T07:43:05;101561.34;;;19.23;78.76
23473;BME280;11909;52.516;13.564;2023-09-08T07:45:33;101563.50;;;19.26;78.73
23473;BME280;11909;52.516;13.564;2023-09-08T07:48:01;101559.59;;;19.35;78.46
23473;BME280;11909;52.516;13.564;2023-09-08T07:50:29;101563.81;;;19.56;75.21
23473;BME280;11909;52.516;13.564;2023-09-08T07:52:57;101565.94;;;19.59;75.92
23473;BME280;11909;52.516;13.564;2023-09-08T07:55:25;101559.53;;;19.58;77.15
23473;BME280;11909;52.516;13.564;2023-09-08T07:57:55;101559.75;;;19.71;77.20
23473;BME280;11909;52.516;13.564;2023-09-08T08:00:25;101569.09;;;19.75;76.58
23473;BME280;11909;52.516;13.564;2023-09-08T08:02:55;101565.34;;;19.80;76.96
23473;BME280;11909;52.516;13.564;2023-09-08T08:05:23;101567.66;;;19.86;76.34
23473;BME280;11909;52.516;13.564;2023-09-08T08:07:52;101570.59;;;19.90;76.91
23473;BME280;11909;52.516;13.564;2023-09-08T08:10:19;101566.72;;;20.00;76.65
23473;BME280;11909;52.516;13.564;2023-09-08T08:12:47;101566.22;;;19.98;77.26
23473;BME280;11909;52.516;13.564;2023-09-08T08:15:15;101566.72;;;20.00;78.45
23473;BME280;11909;52.516;13.564;2023-09-08T08:17:45;101563.63;;;20.01;78.94
23473;BME280;11909;52.516;13.564;2023-09-08T08:20:13;101564.94;;;20.22;77.01
23473;BME280;11909;52.516;13.564;2023-09-08T08:22:45;101561.69;;;20.28;77.26
23473;BME280;11909;52.516;13.564;2023-09-08T08:25:13;101572.66;;;20.42;74.10
23473;BME280;11909;52.516;13.564;2023-09-08T08:27:41;101563.63;;;20.45;74.34
23473;BME280;11909;52.516;13.564;2023-09-08T08:30:09;101570.38;;;20.53;74.06
23473;BME280;11909;52.516;13.564;2023-09-08T08:32:38;101575.09;;;20.53;72.83
23473;BME280;11909;52.516;13.564;2023-09-08T08:35:07;101568.72;;;20.52;73.28
23473;BME280;11909;52.516;13.564;2023-09-08T08:37:35;101562.47;;;20.64;73.66
23473;BME280;11909;52.516;13.564;2023-09-08T08:40:04;101564.44;;;20.81;71.66
23473;BME280;11909;52.516;13.564;2023-09-08T08:42:33;101566.09;;;20.82;72.80
23473;BME280;11909;52.516;13.564;2023-09-08T08:45:02;101569.84;;;20.95;71.18
23473;BME280;11909;52.516;13.564;2023-09-08T08:47:31;101558.63;;;21.13;70.22
23473;BME280;11909;52.516;13.564;2023-09-08T08:50:00;101566.97;;;21.22;70.10
23473;BME280;11909;52.516;13.564;2023-09-08T08:52:30;101569.28;;;21.19;70.87
23473;BME280;11909;52.516;13.564;2023-09-08T08:54:59;101563.09;;;21.44;68.64
23473;BME280;11909;52.516;13.564;2023-09-08T08:57:28;101568.28;;;21.63;68.99
23473;BME280;11909;52.516;13.564;2023-09-08T08:59:56;101562.00;;;21.75;68.13
23473;BME280;11909;52.516;13.564;2023-09-08T09:02:25;101568.50;;;21.88;66.61
23473;BME280;11909;52.516;13.564;2023-09-08T09:04:56;101554.34;;;21.93;69.41
23473;BME280;11909;52.516;13.564;2023-09-08T09:07:25;101565.13;;;22.03;68.61
23473;BME280;11909;52.516;13.564;2023-09-08T09:09:55;101557.44;;;22.22;66.29
23473;BME280;11909;52.516;13.564;2023-09-08T09:12:23;101559.72;;;22.41;66.50
23473;BME280;11909;52.516;13.564;2023-09-08T09:14:53;101545.69;;;22.49;68.95
23473;BME280;11909;52.516;13.564;2023-09-08T09:17:21;101559.06;;;22.65;69.23
23473;BME280;11909;52.516;13.564;2023-09-08T09:19:49;101557.84;;;22.87;67.05
23473;BME280;11909;52.516;13.564;2023-09-08T09:22:19;101555.56;;;23.14;67.54
23473;BME280;11909;52.516;13.564;2023-09-08T09:24:48;101560.38;;;23.26;63.71
23473;BME280;11909;52.516;13.564;2023-09-08T09:27:18;101562.19;;;23.43;62.31
23473;BME280;11909;52.516;13.564;2023-09-08T09:29:46;101563.91;;;23.60;60.92
23473;BME280;11909;52.516;13.564;2023-09-08T09:32:16;101564.16;;;23.80;58.42
23473;BME280;11909;52.516;13.564;2023-09-08T09:34:48;101563.88;;;23.98;58.37
23473;BME280;11909;52.516;13.564;2023-09-08T09:37:18;101563.97;;;24.26;56.88
23473;BME280;11909;52.516;13.564;2023-09-08T09:39:48;101560.66;;;24.37;56.09
23473;BME280;11909;52.516;13.564;2023-09-08T09:42:17;101563.41;;;24.49;58.26
23473;BME280;11909;52.516;13.564;2023-09-08T09:44:46;101561.81;;;24.64;56.19
23473;BME280;11909;52.516;13.564;2023-09-08T09:47:14;101564.28;;;24.66;57.40
23473;BME280;11909;52.516;13.564;2023-09-08T09:49:45;101555.03;;;24.77;57.04
23473;BME280;11909;52.516;13.564;2023-09-08T09:52:14;101548.53;;;24.89;57.19
23473;BME280;11909;52.516;13.564;2023-09-08T09:54:43;101548.34;;;24.98;58.17
23473;BME280;11909;52.516;13.564;2023-09-08T09:57:13;101544.66;;;25.10;57.71
23473;BME280;11909;52.516;13.564;2023-09-08T09:59:42;101558.59;;;25.23;54.63
23473;BME280;11909;52.516;13.564;2023-09-08T10:02:12;101555.81;;;25.39;52.61
23473;BME280;11909;52.516;13.564;2023-09-08T10:04:41;101555.06;;;25.42;54.30
23473;BME280;11909;52.516;13.564;2023-09-08T10:07:10;101558.25;;;25.56;51.76
23473;BME280;11909;52.516;13.564;2023-09-08T10:09:38;101558.50;;;25.67;50.43
23473;BME280;11909;52.516;13.564;2023-09-08T10:12:08;101550.50;;;25.69;53.55
23473;BME280;11909;52.516;13.564;2023-09-08T10:14:40;101555.19;;;25.81;49.93
23473;BME280;11909;52.516;13.564;2023-09-08T10:17:12;101541.78;;;25.90;51.39
23473;BME280;11909;52.516;13.564;2023-09-08T10:19:44;101540.75;;;25.99;52.85
23473;BME280;11909;52.516;13.564;2023-09-08T10:22:20;101548.44;;;26.02;50.05
23473;BME280;11909;52.516;13.564;2023-09-08T10:24:50;101554.84;;;26.18;48.59
23473;BME280;11909;52.516;13.564;2023-09-08T10:27:21;101547.31;;;26.23;48.09
23473;BME280;11909;52.516;13.564;2023-09-08T10:29:51;101542.66;;;26.30;47.28
23473;BME280;11909;52.516;13.564;2023-09-08T10:32:22;101544.34;;;26.35;48.75
23473;BME280;11909;52.516;13.564;2023-09-08T10:34:51;101549.38;;;26.45;46.34
23473;BME280;11909;52.516;13.564;2023-09-08T10:37:21;101544.41;;;26.58;46.70
23473;BME280;11909;52.516;13.564;2023-09-08T10:39:51;101544.47;;;26.62;46.40
23473;BME280;11909;52.516;13.564;2023-09-08T10:42:24;101535.28;;;26.65;47.12
23473;BME280;11909;52.516;13.564;2023-09-08T10:44:57;101545.56;;;26.77;46.46
23473;BME280;11909;52.516;13.564;2023-09-08T10:47:31;101535.19;;;26.81;46.97
23473;BME280;11909;52.516;13.564;2023-09-08T10:50:01;101526.44;;;26.86;49.17
23473;BME280;11909;52.516;13.564;2023-09-08T10:52:30;101528.97;;;26.91;48.21
23473;BME280;11909;52.516;13.564;2023-09-08T10:54:59;101527.03;;;26.96;49.35
23473;BME280;11909;52.516;13.564;2023-09-08T10:57:28;101525.91;;;27.00;49.27
23473;BME280;11909;52.516;13.564;2023-09-08T10:59:59;101524.78;;;27.05;49.56
23473;BME280;11909;52.516;13.564;2023-09-08T11:02:37;101535.72;;;27.10;47.87
23473;BME280;11909;52.516;13.564;2023-09-08T11:05:07;101514.06;;;27.14;50.96
23473;BME280;11909;52.516;13.564;2023-09-08T11:07:36;101513.44;;;27.25;51.51
23473;BME280;11909;52.516;13.564;2023-09-08T11:10:06;101536.06;;;27.32;45.04
23473;BME280;11909;52.516;13.564;2023-09-08T11:12:34;101528.56;;;27.40;45.29
23473;BME280;11909;52.516;13.564;2023-09-08T11:15:04;101531.50;;;27.47;45.11
23473;BME280;11909;52.516;13.564;2023-09-08T11:17:36;101531.53;;;27.51;44.34
23473;BME280;11909;52.516;13.564;2023-09-08T11:20:07;101528.00;;;27.54;45.18
23473;BME280;11909;52.516;13.564;2023-09-08T11:25:17;101519.53;;;27.54;46.84
23473;BME280;11909;52.516;13.564;2023-09-08T11:27:44;101522.00;;;27.55;46.50
23473;BME280;11909;52.516;13.564;2023-09-08T11:30:13;101518.03;;;27.60;47.41
23473;BME280;11909;52.516;13.564;2023-09-08T11:32:42;101522.16;;;27.66;43.29
23473;BME280;11909;52.516;13.564;2023-09-08T11:35:10;101526.16;;;27.65;42.76
23473;BME280;11909;52.516;13.564;2023-09-08T11:37:40;101526.50;;;27.60;41.96
23473;BME280;11909;52.516;13.564;2023-09-08T11:40:10;101508.84;;;27.67;44.39
23473;BME280;11909;52.516;13.564;2023-09-08T11:42:39;101504.53;;;27.73;46.71
23473;BME280;11909;52.516;13.564;2023-09-08T11:45:11;101495.72;;;27.78;47.00
23473;BME280;11909;52.516;13.564;2023-09-08T11:47:43;101509.50;;;27.83;46.34
23473;BME280;11909;52.516;13.564;2023-09-08T11:50:11;101512.66;;;27.78;44.46
23473;BME280;11909;52.516;13.564;2023-09-08T11:52:43;101512.31;;;27.83;43.17
23473;BME280;11909;52.516;13.564;2023-09-08T11:55:11;101512.66;;;27.78;42.48
23473;BME280;11909;52.516;13.564;2023-09-08T11:57:40;101506.50;;;27.69;43.99
23473;BME280;11909;52.516;13.564;2023-09-08T12:00:10;101501.66;;;27.69;45.31
23473;BME280;11909;52.516;13.564;2023-09-08T12:02:44;101496.50;;;27.75;45.32
23473;BME280;11909;52.516;13.564;2023-09-08T12:05:13;101478.38;;;27.76;46.95
23473;BME280;11909;52.516;13.564;2023-09-08T12:07:41;101486.75;;;27.69;43.88
23473;BME280;11909;52.516;13.564;2023-09-08T12:10:10;101471.78;;;27.65;47.11
23473;BME280;11909;52.516;13.564;2023-09-08T12:12:43;101472.88;;;27.56;47.51
23473;BME280;11909;52.516;13.564;2023-09-08T12:15:11;101467.41;;;27.44;47.25
23473;BME280;11909;52.516;13.564;2023-09-08T12:17:50;101466.13;;;27.38;47.22
23473;BME280;11909;52.516;13.564;2023-09-08T12:20:18;101452.88;;;27.38;48.13
23473;BME280;11909;52.516;13.564;2023-09-08T12:22:50;101455.19;;;27.32;48.57
23473;BME280;11909;52.516;13.564;2023-09-08T12:25:18;101458.66;;;27.22;46.15
23473;BME280;11909;52.516;13.564;2023-09-08T12:27:50;101455.84;;;27.22;47.29
23473;BME280;11909;52.516;13.564;2023-09-08T12:30:18;101455.78;;;27.18;47.08
23473;BME280;11909;52.516;13.564;2023-09-08T12:32:50;101450.16;;;27.18;47.89
23473;BME280;11909;52.516;13.564;2023-09-08T12:35:21;101454.94;;;27.18;47.52
23473;BME280;11909;52.516;13.564;2023-09-08T12:38:08;101468.28;;;27.21;45.41
23473;BME280;11909;52.516;13.564;2023-09-08T12:40:37;101452.19;;;27.22;45.62
23473;BME280;11909;52.516;13.564;2023-09-08T12:43:06;101450.16;;;27.18;44.34
23473;BME280;11909;52.516;13.564;2023-09-08T12:45:53;101435.19;;;27.14;47.07
23473;BME280;11909;52.516;13.564;2023-09-08T12:48:23;101446.13;;;27.19;44.53
23473;BME280;11909;52.516;13.564;2023-09-08T12:50:51;101448.19;;;27.23;43.85
23473;BME280;11909;52.516;13.564;2023-09-08T12:53:19;101447.44;;;27.26;44.10